sensor_id;sensor_type;location;lat;lon;timestamp;pressure;altitude;pressure_sealevel;temperature;humidity
55217;BME280;41086;46.736;15.666;2023-02-16T00:01:00;99570.31;;;-2.96;100.00
55217;BME280;41086;46.736;15.666;2023-02-16T00:03:28;99561.66;;;-2.96;100.00
55217;BME280;41086;46.736;15.666;2023-02-16T00:05:55;99567.72;;;-2.96;100.00
55217;BME280;41086;46.736;15.666;2023-02-16T00:08:22;99563.38;;;-2.94;100.00
55217;BME280;41086;46.736;15.666;2023-02-16T00:10:49;99560.78;;;-2.94;100.00
55217;BME280;41086;46.736;15.666;2023-02-16T00:13:34;99565.13;;;-2.96;100.00
55217;BME280;41086;46.736;15.666;2023-02-16T00:16:11;99554.75;;;-2.96;100.00
55217;BME280;41086;46.736;15.666;2023-02-16T00:18:38;99551.28;;;-2.96;100.00
55217;BME280;41086;46.736;15.666;2023-02-16T00:21:05;99546.06;;;-3.02;100.00
55217;BME280;41086;46.736;15.666;2023-02-16T00:23:31;99552.09;;;-3.09;100.00
55217;BME280;41086;46.736;15.666;2023-02-16T00:25:58;99558.16;;;-3.07;100.00
55217;BME280;41086;46.736;15.666;2023-02-16T00:28:25;99555.59;;;-3.06;100.00
55217;BME280;41086;46.736;15.666;2023-02-16T00:30:51;99555.56;;;-3.07;100.00
55217;BME280;41086;46.736;15.666;2023-02-16T00:33:19;99571.09;;;-3.14;100.00
55217;BME280;41086;46.736;15.666;2023-02-16T00:35:46;99575.44;;;-3.17;100.00
55217;BME280;41086;46.736;15.666;2023-02-16T00:38:14;99573.69;;;-3.18;100.00
55217;BME280;41086;46.736;15.666;2023-02-16T00:40:41;99568.50;;;-3.15;100.00
55217;BME280;41086;46.736;15.666;2023-02-16T00:43:12;99566.78;;;-3.15;100.00
55217;BME280;41086;46.736;15.666;2023-02-16T00:45:47;99564.19;;;-3.13;100.00
55217;BME280;41086;46.736;15.666;2023-02-16T00:48:14;99571.13;;;-3.09;100.00
55217;BME280;41086;46.736;15.666;2023-02-16T00:50:40;99575.44;;;-3.08;100.00
55217;BME280;41086;46.736;15.666;2023-02-16T00:53:07;99574.59;;;-3.05;100.00
55217;BME280;41086;46.736;15.666;2023-02-16T00:55:35;99577.16;;;-3.07;100.00
55217;BME280;41086;46.736;15.666;2023-02-16T01:00:57;99585.78;;;-3.16;100.00
55217;BME280;41086;46.736;15.666;2023-02-16T01:03:26;99580.59;;;-3.19;100.00
55217;BME280;41086;46.736;15.666;2023-02-16T01:05:53;99579.72;;;-3.19;100.00
55217;BME280;41086;46.736;15.666;2023-02-16T01:08:40;99571.03;;;-3.26;100.00
55217;BME280;41086;46.736;15.666;2023-02-16T01:11:26;99572.78;;;-3.28;100.00
55217;BME280;41086;46.736;15.666;2023-02-16T01:13:53;99566.72;;;-3.30;100.00
55217;BME280;41086;46.736;15.666;2023-02-16T01:16:21;99568.44;;;-3.29;100.00
55217;BME280;41086;46.736;15.666;2023-02-16T01:18:48;99565.84;;;-3.30;100.00
55217;BME280;41086;46.736;15.666;2023-02-16T01:21:17;99568.41;;;-3.35;100.00
55217;BME280;41086;46.736;15.666;2023-02-16T01:23:43;99568.38;;;-3.43;100.00
55217;BME280;41086;46.736;15.666;2023-02-16T01:26:13;99566.63;;;-3.48;100.00
55217;BME280;41086;46.736;15.666;2023-02-16T01:28:41;99568.34;;;-3.50;100.00
55217;BME280;41086;46.736;15.666;2023-02-16T01:31:09;99566.59;;;-3.54;100.00
55217;BME280;41086;46.736;15.666;2023-02-16T01:33:37;99563.13;;;-3.58;100.00
55217;BME280;41086;46.736;15.666;2023-02-16T01:36:06;99556.22;;;-3.53;100.00
55217;BME280;41086;46.736;15.666;2023-02-16T01:38:37;99551.94;;;-3.49;100.00
55217;BME280;41086;46.736;15.666;2023-02-16T01:41:10;99554.53;;;-3.46;100.00
55217;BME280;41086;46.736;15.666;2023-02-16T01:43:56;99548.50;;;-3.50;100.00
55217;BME280;41086;46.736;15.666;2023-02-16T01:49:12;99542.44;;;-3.49;100.00
55217;BME280;41086;46.736;15.666;2023-02-16T01:57:05;99525.22;;;-3.39;100.00
55217;BME280;41086;46.736;15.666;2023-02-16T01:59:58;99521.75;;;-3.41;100.00
55217;BME280;41086;46.736;15.666;2023-02-16T02:02:26;99513.13;;;-3.36;100.00
55217;BME280;41086;46.736;15.666;2023-02-16T02:04:56;99508.81;;;-3.32;100.00
55217;BME280;41086;46.736;15.666;2023-02-16T02:07:54;99514.00;;;-3.32;100.00
55217;BME280;41086;46.736;15.666;2023-02-16T02:10:32;99511.38;;;-3.37;100.00
55217;BME280;41086;46.736;15.666;2023-02-16T02:15:30;99499.25;;;-3.42;100.00
55217;BME280;41086;46.736;15.666;2023-02-16T02:17:57;99496.66;;;-3.45;100.00
55217;BME280;41086;46.736;15.666;2023-02-16T02:23:15;99501.81;;;-3.51;100.00
55217;BME280;41086;46.736;15.666;2023-02-16T02:28:48;99497.50;;;-3.55;100.00
55217;BME280;41086;46.736;15.666;2023-02-16T02:33:53;99494.91;;;-3.51;100.00
55217;BME280;41086;46.736;15.666;2023-02-16T02:36:27;99494.03;;;-3.56;100.00
55217;BME280;41086;46.736;15.666;2023-02-16T02:39:09;99503.50;;;-3.61;100.00
55217;BME280;41086;46.736;15.666;2023-02-16T02:44:45;99495.78;;;-3.49;100.00
55217;BME280;41086;46.736;15.666;2023-02-16T02:47:13;99498.38;;;-3.49;100.00
55217;BME280;41086;46.736;15.666;2023-02-16T02:49:47;99500.94;;;-3.50;100.00
55217;BME280;41086;46.736;15.666;2023-02-16T02:52:13;99501.81;;;-3.54;100.00
55217;BME280;41086;46.736;15.666;2023-02-16T02:54:40;99506.13;;;-3.58;100.00
55217;BME280;41086;46.736;15.666;2023-02-16T03:00:27;99494.88;;;-3.63;100.00
55217;BME280;41086;46.736;15.666;2023-02-16T03:03:11;99493.13;;;-3.63;100.00
55217;BME280;41086;46.736;15.666;2023-02-16T03:05:40;99499.19;;;-3.61;100.00
55217;BME280;41086;46.736;15.666;2023-02-16T03:08:10;99504.34;;;-3.64;100.00
55217;BME280;41086;46.736;15.666;2023-02-16T03:10:42;99493.13;;;-3.64;100.00
55217;BME280;41086;46.736;15.666;2023-02-16T03:13:30;99500.03;;;-3.66;100.00
55217;BME280;41086;46.736;15.666;2023-02-16T03:16:00;99498.31;;;-3.69;100.00
55217;BME280;41086;46.736;15.666;2023-02-16T03:18:29;99500.00;;;-3.69;100.00
55217;BME280;41086;46.736;15.666;2023-02-16T03:21:15;99494.81;;;-3.71;100.00
55217;BME280;41086;46.736;15.666;2023-02-16T03:24:02;99495.72;;;-3.69;100.00
55217;BME280;41086;46.736;15.666;2023-02-16T03:26:48;99493.97;;;-3.68;100.00
55217;BME280;41086;46.736;15.666;2023-02-16T03:29:35;99493.97;;;-3.64;100.00
55217;BME280;41086;46.736;15.666;2023-02-16T03:32:02;99489.66;;;-3.65;100.00
55217;BME280;41086;46.736;15.666;2023-02-16T03:34:29;99496.56;;;-3.74;100.00
55217;BME280;41086;46.736;15.666;2023-02-16T03:36:57;99491.31;;;-3.84;100.00
55217;BME280;41086;46.736;15.666;2023-02-16T03:39:26;99489.53;;;-3.92;100.00
55217;BME280;41086;46.736;15.666;2023-02-16T03:41:54;99493.81;;;-3.94;100.00
55217;BME280;41086;46.736;15.666;2023-02-16T03:44:21;99486.09;;;-3.87;100.00
55217;BME280;41086;46.736;15.666;2023-02-16T03:46:48;99487.88;;;-3.83;100.00
55217;BME280;41086;46.736;15.666;2023-02-16T03:49:15;99486.16;;;-3.82;100.00
55217;BME280;41086;46.736;15.666;2023-02-16T03:51:42;99482.69;;;-3.83;100.00
55217;BME280;41086;46.736;15.666;2023-02-16T03:54:09;99484.38;;;-3.86;100.00
55217;BME280;41086;46.736;15.666;2023-02-16T03:56:35;99489.56;;;-3.91;100.00
55217;BME280;41086;46.736;15.666;2023-02-16T03:59:02;99479.16;;;-3.94;100.00
55217;BME280;41086;46.736;15.666;2023-02-16T04:01:29;99473.13;;;-3.93;100.00
55217;BME280;41086;46.736;15.666;2023-02-16T04:03:55;99478.31;;;-3.93;100.00
55217;BME280;41086;46.736;15.666;2023-02-16T04:06:22;99483.50;;;-3.93;100.00
55217;BME280;41086;46.736;15.666;2023-02-16T04:08:48;99485.19;;;-3.96;100.00
55217;BME280;41086;46.736;15.666;2023-02-16T04:11:16;99482.56;;;-4.03;100.00
55217;BME280;41086;46.736;15.666;2023-02-16T04:14:01;99486.84;;;-4.05;100.00
55217;BME280;41086;46.736;15.666;2023-02-16T04:16:28;99486.81;;;-4.11;100.00
55217;BME280;41086;46.736;15.666;2023-02-16T04:18:54;99482.50;;;-4.13;100.00
55217;BME280;41086;46.736;15.666;2023-02-16T04:21:21;99484.22;;;-4.14;100.00
55217;BME280;41086;46.736;15.666;2023-02-16T04:23:48;99473.00;;;-4.14;100.00
55217;BME280;41086;46.736;15.666;2023-02-16T04:26:14;99477.34;;;-4.07;100.00
55217;BME280;41086;46.736;15.666;2023-02-16T04:28:41;99475.69;;;-4.01;100.00
55217;BME280;41086;46.736;15.666;2023-02-16T04:31:07;99473.97;;;-3.95;100.00
55217;BME280;41086;46.736;15.666;2023-02-16T04:33:34;99472.25;;;-3.92;100.00
55217;BME280;41086;46.736;15.666;2023-02-16T04:36:01;99475.72;;;-3.90;100.00
55217;BME280;41086;46.736;15.666;2023-02-16T04:38:27;99480.06;;;-3.86;100.00
55217;BME280;41086;46.736;15.666;2023-02-16T04:40:54;99484.41;;;-3.85;100.00
55217;BME280;41086;46.736;15.666;2023-02-16T04:43:20;99480.06;;;-3.87;100.00
55217;BME280;41086;46.736;15.666;2023-02-16T04:45:47;99478.31;;;-3.88;100.00
55217;BME280;41086;46.736;15.666;2023-02-16T04:48:14;99484.38;;;-3.89;100.00
55217;BME280;41086;46.736;15.666;2023-02-16T04:50:40;99484.38;;;-3.89;100.00
55217;BME280;41086;46.736;15.666;2023-02-16T04:53:07;99481.78;;;-3.91;100.00
55217;BME280;41086;46.736;15.666;2023-02-16T04:55:33;99480.03;;;-3.92;100.00
55217;BME280;41086;46.736;15.666;2023-02-16T04:58:00;99485.16;;;-3.99;100.00
55217;BME280;41086;46.736;15.666;2023-02-16T05:00:26;99491.13;;;-4.13;100.00
55217;BME280;41086;46.736;15.666;2023-02-16T05:02:53;99479.84;;;-4.22;100.00
55217;BME280;41086;46.736;15.666;2023-02-16T05:05:20;99475.53;;;-4.22;100.00
55217;BME280;41086;46.736;15.666;2023-02-16T05:07:46;99471.25;;;-4.15;100.00
55217;BME280;41086;46.736;15.666;2023-02-16T05:10:13;99465.22;;;-4.16;100.00
55217;BME280;41086;46.736;15.666;2023-02-16T05:12:39;99479.91;;;-4.15;100.00
55217;BME280;41086;46.736;15.666;2023-02-16T05:15:24;99474.75;;;-4.10;100.00
55217;BME280;41086;46.736;15.666;2023-02-16T05:17:51;99472.16;;;-4.10;100.00
55217;BME280;41086;46.736;15.666;2023-02-16T05:20:17;99475.59;;;-4.13;100.00
55217;BME280;41086;46.736;15.666;2023-02-16T05:22:44;99476.44;;;-4.15;100.00
55217;BME280;41086;46.736;15.666;2023-02-16T05:25:11;99472.97;;;-4.20;100.00
55217;BME280;41086;46.736;15.666;2023-02-16T05:27:38;99476.34;;;-4.26;100.00
55217;BME280;41086;46.736;15.666;2023-02-16T05:30:05;99476.31;;;-4.32;100.00
55217;BME280;41086;46.736;15.666;2023-02-16T05:32:32;99478.88;;;-4.38;100.00
55217;BME280;41086;46.736;15.666;2023-02-16T05:34:58;99473.66;;;-4.43;100.00
55217;BME280;41086;46.736;15.666;2023-02-16T05:37:25;99471.94;;;-4.41;100.00
55217;BME280;41086;46.736;15.666;2023-02-16T05:39:52;99480.56;;;-4.45;100.00
55217;BME280;41086;46.736;15.666;2023-02-16T05:42:18;99483.94;;;-4.51;100.00
55217;BME280;41086;46.736;15.666;2023-02-16T05:44:45;99484.84;;;-4.50;100.00
55217;BME280;41086;46.736;15.666;2023-02-16T05:47:12;99491.72;;;-4.52;100.00
55217;BME280;41086;46.736;15.666;2023-02-16T05:49:38;99493.38;;;-4.57;100.00
55217;BME280;41086;46.736;15.666;2023-02-16T05:52:05;99498.50;;;-4.62;100.00
55217;BME280;41086;46.736;15.666;2023-02-16T05:54:32;99486.44;;;-4.66;100.00
55217;BME280;41086;46.736;15.666;2023-02-16T05:56:58;99496.78;;;-4.66;100.00
55217;BME280;41086;46.736;15.666;2023-02-16T05:59:25;99500.25;;;-4.62;100.00
55217;BME280;41086;46.736;15.666;2023-02-16T06:01:53;99495.09;;;-4.61;100.00
55217;BME280;41086;46.736;15.666;2023-02-16T06:04:20;99498.53;;;-4.60;100.00
55217;BME280;41086;46.736;15.666;2023-02-16T06:06:47;99501.09;;;-4.62;100.00
55217;BME280;41086;46.736;15.666;2023-02-16T06:09:14;99508.84;;;-4.65;100.00
55217;BME280;41086;46.736;15.666;2023-02-16T06:11:41;99503.69;;;-4.62;100.00
55217;BME280;41086;46.736;15.666;2023-02-16T06:14:13;99502.88;;;-4.58;100.00
55217;BME280;41086;46.736;15.666;2023-02-16T06:16:41;99504.63;;;-4.55;100.00
55217;BME280;41086;46.736;15.666;2023-02-16T06:19:08;99504.59;;;-4.58;100.00
55217;BME280;41086;46.736;15.666;2023-02-16T06:21:35;99497.78;;;-4.50;100.00
55217;BME280;41086;46.736;15.666;2023-02-16T06:24:02;99498.69;;;-4.45;100.00
55217;BME280;41086;46.736;15.666;2023-02-16T06:26:29;99503.84;;;-4.45;100.00
55217;BME280;41086;46.736;15.666;2023-02-16T06:28:56;99505.56;;;-4.47;100.00
55217;BME280;41086;46.736;15.666;2023-02-16T06:31:22;99508.13;;;-4.46;100.00
55217;BME280;41086;46.736;15.666;2023-02-16T06:33:50;99512.53;;;-4.37;100.00
55217;BME280;41086;46.736;15.666;2023-02-16T06:36:17;99514.38;;;-4.22;100.00
55217;BME280;41086;46.736;15.666;2023-02-16T06:38:44;99512.66;;;-4.15;100.00
55217;BME280;41086;46.736;15.666;2023-02-16T06:41:13;99523.06;;;-4.11;100.00
55217;BME280;41086;46.736;15.666;2023-02-16T06:44:00;99534.34;;;-4.03;100.00
55217;BME280;41086;46.736;15.666;2023-02-16T06:46:27;99536.09;;;-4.00;100.00
55217;BME280;41086;46.736;15.666;2023-02-16T06:48:54;99547.28;;;-4.03;100.00
55217;BME280;41086;46.736;15.666;2023-02-16T06:51:21;99551.63;;;-4.00;100.00
55217;BME280;41086;46.736;15.666;2023-02-16T06:53:47;99542.22;;;-3.89;100.00
55217;BME280;41086;46.736;15.666;2023-02-16T06:56:14;99547.50;;;-3.73;100.00
55217;BME280;41086;46.736;15.666;2023-02-16T06:58:41;99555.25;;;-3.72;100.00
55217;BME280;41086;46.736;15.666;2023-02-16T07:01:07;99550.16;;;-3.63;100.00
55217;BME280;41086;46.736;15.666;2023-02-16T07:03:34;99556.22;;;-3.61;100.00
55217;BME280;41086;46.736;15.666;2023-02-16T07:18:12;99533.91;;;-3.23;100.00
55217;BME280;41086;46.736;15.666;2023-02-16T07:20:38;99531.34;;;-3.09;100.00
55217;BME280;41086;46.736;15.666;2023-02-16T07:23:05;99539.22;;;-2.83;100.00
55217;BME280;41086;46.736;15.666;2023-02-16T07:25:32;99547.88;;;-2.69;100.00
55217;BME280;41086;46.736;15.666;2023-02-16T07:28:02;99540.13;;;-2.63;100.00
55217;BME280;41086;46.736;15.666;2023-02-16T07:30:28;99489.91;;;-2.80;100.00
55217;BME280;41086;46.736;15.666;2023-02-16T07:32:55;99547.06;;;-2.37;100.00
55217;BME280;41086;46.736;15.666;2023-02-16T07:35:22;99561.78;;;-2.38;100.00
55217;BME280;41086;46.736;15.666;2023-02-16T07:37:49;99546.19;;;-2.15;100.00
55217;BME280;41086;46.736;15.666;2023-02-16T07:40:16;99561.78;;;-2.18;100.00
55217;BME280;41086;46.736;15.666;2023-02-16T07:42:43;99568.72;;;-2.28;100.00
55217;BME280;41086;46.736;15.666;2023-02-16T07:45:09;99558.31;;;-2.14;100.00
55217;BME280;41086;46.736;15.666;2023-02-16T07:47:36;99545.34;;;-2.14;100.00
55217;BME280;41086;46.736;15.666;2023-02-16T07:50:03;99552.22;;;-2.04;100.00
55217;BME280;41086;46.736;15.666;2023-02-16T07:52:30;99560.88;;;-1.85;100.00
55217;BME280;41086;46.736;15.666;2023-02-16T07:54:57;99566.06;;;-1.72;100.00
55217;BME280;41086;46.736;15.666;2023-02-16T07:57:25;99572.13;;;-1.72;100.00
55217;BME280;41086;46.736;15.666;2023-02-16T07:59:52;99568.63;;;-1.56;100.00
55217;BME280;41086;46.736;15.666;2023-02-16T08:02:19;99581.63;;;-1.46;100.00
55217;BME280;41086;46.736;15.666;2023-02-16T08:04:47;99581.59;;;-1.32;100.00
55217;BME280;41086;46.736;15.666;2023-02-16T08:07:16;99582.38;;;-1.15;100.00
55217;BME280;41086;46.736;15.666;2023-02-16T08:09:44;99573.72;;;-1.19;100.00
55217;BME280;41086;46.736;15.666;2023-02-16T08:12:12;99598.84;;;-1.10;100.00
55217;BME280;41086;46.736;15.666;2023-02-16T08:14:39;99585.81;;;-1.05;100.00
55217;BME280;41086;46.736;15.666;2023-02-16T08:17:07;99583.91;;;-0.71;100.00
55217;BME280;41086;46.736;15.666;2023-02-16T08:19:34;99589.00;;;-0.48;100.00
55217;BME280;41086;46.736;15.666;2023-02-16T08:22:03;99599.38;;;-0.42;100.00
55217;BME280;41086;46.736;15.666;2023-02-16T08:24:30;99597.56;;;-0.31;100.00
55217;BME280;41086;46.736;15.666;2023-02-16T08:26:57;99600.94;;;-0.18;100.00
55217;BME280;41086;46.736;15.666;2023-02-16T08:29:26;99596.50;;;-0.07;100.00
55217;BME280;41086;46.736;15.666;2023-02-16T08:31:53;99608.41;;;0.25;100.00
55217;BME280;41086;46.736;15.666;2023-02-16T08:34:23;99609.44;;;0.07;100.00
55217;BME280;41086;46.736;15.666;2023-02-16T08:36:52;99617.13;;;0.21;100.00
55217;BME280;41086;46.736;15.666;2023-02-16T08:39:26;99617.03;;;0.33;100.00
55217;BME280;41086;46.736;15.666;2023-02-16T08:41:54;99607.47;;;0.35;100.00
55217;BME280;41086;46.736;15.666;2023-02-16T08:44:22;99614.91;;;0.72;100.00
55217;BME280;41086;46.736;15.666;2023-02-16T08:46:51;99616.72;;;0.62;100.00
55217;BME280;41086;46.736;15.666;2023-02-16T08:49:20;99609.78;;;0.61;100.00
55217;BME280;41086;46.736;15.666;2023-02-16T08:51:56;99619.13;;;0.85;100.00
55217;BME280;41086;46.736;15.666;2023-02-16T08:54:26;99633.72;;;1.02;100.00
55217;BME280;41086;46.736;15.666;2023-02-16T08:56:53;99639.09;;;0.88;100.00
55217;BME280;41086;46.736;15.666;2023-02-16T08:59:22;99626.13;;;0.80;100.00
55217;BME280;41086;46.736;15.666;2023-02-16T09:01:52;99631.28;;;0.88;100.00
55217;BME280;41086;46.736;15.666;2023-02-16T09:04:23;99628.44;;;1.06;100.00
55217;BME280;41086;46.736;15.666;2023-02-16T09:06:52;99637.84;;;1.21;100.00
55217;BME280;41086;46.736;15.666;2023-02-16T09:09:19;99644.84;;;1.16;100.00
55217;BME280;41086;46.736;15.666;2023-02-16T09:11:47;99623.03;;;1.23;100.00
55217;BME280;41086;46.736;15.666;2023-02-16T09:14:16;99585.09;;;0.92;100.00
55217;BME280;41086;46.736;15.666;2023-02-16T09:16:44;99590.16;;;1.07;100.00
55217;BME280;41086;46.736;15.666;2023-02-16T09:19:13;99613.91;;;1.52;100.00
55217;BME280;41086;46.736;15.666;2023-02-16T09:21:42;99624.34;;;1.53;100.00
55217;BME280;41086;46.736;15.666;2023-02-16T09:24:09;99644.00;;;1.82;100.00
55217;BME280;41086;46.736;15.666;2023-02-16T09:26:38;99636.97;;;1.84;100.00
55217;BME280;41086;46.736;15.666;2023-02-16T09:29:09;99632.34;;;2.03;100.00
55217;BME280;41086;46.736;15.666;2023-02-16T09:31:37;99633.06;;;2.13;100.00
55217;BME280;41086;46.736;15.666;2023-02-16T09:34:15;99637.66;;;2.53;100.00
55217;BME280;41086;46.736;15.666;2023-02-16T09:36:43;99638.78;;;2.86;100.00
55217;BME280;41086;46.736;15.666;2023-02-16T09:39:10;99636.78;;;2.99;100.00
55217;BME280;41086;46.736;15.666;2023-02-16T09:49:47;99634.81;;;4.28;100.00
55217;BME280;41086;46.736;15.666;2023-02-16T09:55:01;99631.22;;;5.60;100.00
55217;BME280;41086;46.736;15.666;2023-02-16T10:00:24;99640.22;;;6.37;100.00
55217;BME280;41086;46.736;15.666;2023-02-16T10:05:43;99636.50;;;6.70;100.00
55217;BME280;41086;46.736;15.666;2023-02-16T10:08:13;99636.44;;;6.71;100.00
55217;BME280;41086;46.736;15.666;2023-02-16T10:10:48;99635.97;;;6.85;100.00
55217;BME280;41086;46.736;15.666;2023-02-16T10:15:47;99631.59;;;7.09;100.00
55217;BME280;41086;46.736;15.666;2023-02-16T10:18:29;99632.56;;;7.06;100.00
55217;BME280;41086;46.736;15.666;2023-02-16T10:21:00;99635.03;;;7.11;100.00
55217;BME280;41086;46.736;15.666;2023-02-16T10:23:40;99628.03;;;7.81;100.00
55217;BME280;41086;46.736;15.666;2023-02-16T10:26:14;99624.50;;;8.48;100.00
55217;BME280;41086;46.736;15.666;2023-02-16T10:28:54;99616.63;;;9.07;99.47
55217;BME280;41086;46.736;15.666;2023-02-16T10:31:37;99614.25;;;9.79;92.96
55217;BME280;41086;46.736;15.666;2023-02-16T10:34:19;99622.69;;;10.23;84.98
55217;BME280;41086;46.736;15.666;2023-02-16T10:39:49;99618.56;;;10.71;82.89
55217;BME280;41086;46.736;15.666;2023-02-16T10:42:41;99619.88;;;10.97;76.80
55217;BME280;41086;46.736;15.666;2023-02-16T10:47:41;99609.25;;;9.53;79.52
55217;BME280;41086;46.736;15.666;2023-02-16T10:50:25;99605.34;;;9.04;87.09
55217;BME280;41086;46.736;15.666;2023-02-16T10:52:57;99602.41;;;8.90;86.51
55217;BME280;41086;46.736;15.666;2023-02-16T10:55:25;99588.75;;;8.80;86.93
55217;BME280;41086;46.736;15.666;2023-02-16T10:57:57;99571.03;;;8.82;83.87
55217;BME280;41086;46.736;15.666;2023-02-16T11:00:44;99579.47;;;9.10;87.08
55217;BME280;41086;46.736;15.666;2023-02-16T11:03:14;99580.28;;;9.69;82.47
55217;BME280;41086;46.736;15.666;2023-02-16T11:05:41;99578.03;;;10.34;78.10
55217;BME280;41086;46.736;15.666;2023-02-16T11:08:09;99574.25;;;10.21;80.39
55217;BME280;41086;46.736;15.666;2023-02-16T11:10:50;99583.91;;;10.92;77.09
55217;BME280;41086;46.736;15.666;2023-02-16T11:13:28;99570.53;;;11.11;68.21
55217;BME280;41086;46.736;15.666;2023-02-16T11:16:00;99579.31;;;11.44;68.07
55217;BME280;41086;46.736;15.666;2023-02-16T11:18:35;99580.28;;;11.75;65.23
55217;BME280;41086;46.736;15.666;2023-02-16T11:21:05;99578.09;;;12.29;62.05
55217;BME280;41086;46.736;15.666;2023-02-16T11:23:34;99574.72;;;12.72;59.09
55217;BME280;41086;46.736;15.666;2023-02-16T11:26:06;99574.47;;;12.91;60.65
55217;BME280;41086;46.736;15.666;2023-02-16T11:28:46;99566.84;;;13.13;59.29
55217;BME280;41086;46.736;15.666;2023-02-16T11:31:37;99566.66;;;13.16;55.76
55217;BME280;41086;46.736;15.666;2023-02-16T11:34:25;99558.03;;;12.54;57.17
55217;BME280;41086;46.736;15.666;2023-02-16T11:37:06;99561.69;;;12.67;56.92
55217;BME280;41086;46.736;15.666;2023-02-16T11:39:40;99541.75;;;12.60;57.12
55217;BME280;41086;46.736;15.666;2023-02-16T11:42:38;99565.53;;;13.20;55.27
55217;BME280;41086;46.736;15.666;2023-02-16T11:45:07;99557.25;;;12.82;51.57
55217;BME280;41086;46.736;15.666;2023-02-16T11:47:37;99558.03;;;12.84;55.46
55217;BME280;41086;46.736;15.666;2023-02-16T11:50:30;99546.63;;;13.39;50.37
55217;BME280;41086;46.736;15.666;2023-02-16T11:55:45;99544.38;;;14.02;49.16
55217;BME280;41086;46.736;15.666;2023-02-16T11:58:24;99534.13;;;14.35;47.42
55217;BME280;41086;46.736;15.666;2023-02-16T12:12:02;99539.25;;;14.78;46.65
55217;BME280;41086;46.736;15.666;2023-02-16T12:15:05;99528.88;;;14.61;45.10
55217;BME280;41086;46.736;15.666;2023-02-16T12:17:55;99521.84;;;14.85;44.76
55217;BME280;41086;46.736;15.666;2023-02-16T12:28:43;99511.06;;;15.49;43.57
55217;BME280;41086;46.736;15.666;2023-02-16T12:31:30;99501.97;;;15.02;43.89
55217;BME280;41086;46.736;15.666;2023-02-16T12:43:00;99482.97;;;15.44;43.44
55217;BME280;41086;46.736;15.666;2023-02-16T12:45:34;99480.63;;;15.02;42.19
55217;BME280;41086;46.736;15.666;2023-02-16T12:51:14;99475.00;;;14.69;45.70
55217;BME280;41086;46.736;15.666;2023-02-16T12:56:20;99474.50;;;15.26;46.04
55217;BME280;41086;46.736;15.666;2023-02-16T12:59:02;99465.94;;;14.71;48.07
55217;BME280;41086;46.736;15.666;2023-02-16T13:01:32;99459.03;;;15.05;48.90
55217;BME280;41086;46.736;15.666;2023-02-16T13:04:21;99459.25;;;14.38;48.54
55217;BME280;41086;46.736;15.666;2023-02-16T13:07:04;99449.13;;;15.07;49.99
55217;BME280;41086;46.736;15.666;2023-02-16T13:12:47;99441.19;;;15.80;50.41
55217;BME280;41086;46.736;15.666;2023-02-16T13:15:22;99436.94;;;15.40;47.48
55217;BME280;41086;46.736;15.666;2023-02-16T13:18:26;99429.59;;;14.94;48.55
55217;BME280;41086;46.736;15.666;2023-02-16T13:21:02;99425.00;;;14.96;50.70
55217;BME280;41086;46.736;15.666;2023-02-16T13:26:21;99421.13;;;15.13;48.21
55217;BME280;41086;46.736;15.666;2023-02-16T13:29:01;99415.41;;;15.55;50.54
55217;BME280;41086;46.736;15.666;2023-02-16T13:31:58;99418.41;;;15.98;48.80
55217;BME280;41086;46.736;15.666;2023-02-16T13:37:49;99411.91;;;16.25;49.87
55217;BME280;41086;46.736;15.666;2023-02-16T13:46:03;99403.59;;;16.05;47.87
55217;BME280;41086;46.736;15.666;2023-02-16T13:48:45;99402.66;;;16.17;47.68
55217;BME280;41086;46.736;15.666;2023-02-16T13:51:16;99411.56;;;16.29;48.01
55217;BME280;41086;46.736;15.666;2023-02-16T13:53:59;99410.84;;;16.38;49.22
55217;BME280;41086;46.736;15.666;2023-02-16T13:58:56;99423.56;;;16.12;49.35
55217;BME280;41086;46.736;15.666;2023-02-16T14:03:54;99411.94;;;16.36;46.93
55217;BME280;41086;46.736;15.666;2023-02-16T14:06:30;99408.81;;;16.42;45.54
55217;BME280;41086;46.736;15.666;2023-02-16T14:16:51;99409.06;;;16.61;46.67
55217;BME280;41086;46.736;15.666;2023-02-16T14:19:24;99408.56;;;16.68;45.02
55217;BME280;41086;46.736;15.666;2023-02-16T14:21:52;99397.88;;;16.90;44.58
55217;BME280;41086;46.736;15.666;2023-02-16T14:29:41;99402.72;;;16.51;43.74
55217;BME280;41086;46.736;15.666;2023-02-16T14:32:29;99395.66;;;16.73;44.31
55217;BME280;41086;46.736;15.666;2023-02-16T14:35:14;99399.81;;;16.88;45.58
55217;BME280;41086;46.736;15.666;2023-02-16T14:37:59;99394.38;;;16.78;44.44
55217;BME280;41086;46.736;15.666;2023-02-16T14:40:50;99391.06;;;16.97;44.58
55217;BME280;41086;46.736;15.666;2023-02-16T14:43:33;99398.34;;;17.06;44.05
55217;BME280;41086;46.736;15.666;2023-02-16T15:00:37;99388.19;;;16.20;46.07
55217;BME280;41086;46.736;15.666;2023-02-16T15:03:23;99395.88;;;16.36;45.83
55217;BME280;41086;46.736;15.666;2023-02-16T15:05:59;99382.50;;;16.36;45.78
55217;BME280;41086;46.736;15.666;2023-02-16T15:08:29;99372.78;;;16.35;45.58
55217;BME280;41086;46.736;15.666;2023-02-16T15:11:15;99386.25;;;16.22;45.79
55217;BME280;41086;46.736;15.666;2023-02-16T15:13:46;99381.88;;;16.10;46.28
55217;BME280;41086;46.736;15.666;2023-02-16T15:16:17;99380.00;;;15.88;47.96
55217;BME280;41086;46.736;15.666;2023-02-16T15:18:50;99383.84;;;15.84;47.33
55217;BME280;41086;46.736;15.666;2023-02-16T15:21:27;99339.66;;;15.56;47.93
55217;BME280;41086;46.736;15.666;2023-02-16T15:23:58;99380.41;;;15.70;48.16
55217;BME280;41086;46.736;15.666;2023-02-16T15:26:31;99381.75;;;15.28;48.19
55217;BME280;41086;46.736;15.666;2023-02-16T15:29:23;99387.78;;;14.82;49.54
55217;BME280;41086;46.736;15.666;2023-02-16T15:31:53;99351.78;;;14.25;50.67
55217;BME280;41086;46.736;15.666;2023-02-16T15:34:33;99388.97;;;14.01;51.62
55217;BME280;41086;46.736;15.666;2023-02-16T15:37:01;99366.13;;;13.84;53.77